Varmdo — SMXZ — position and weather

sailwx.info

Track history (hours):
 
Tides and Currents Weather Stations Pressure Air Temp Water Temp Dewpoint Dewpoint Depression Visibility Wind Speed Wind Dir Waves Ship Positions

Varmdo

Last reported at 2017-Jul-22 04:30 UTC. Time now 2017-Jul-22 04:51 UTC.
Position N 59°20' E 018°05'.

Length 38 m; draft 2.5 m.

Type: Passenger vessel. MMSI: 265520390.

Date/timePositionNaut miles runAvg speedWind from/ knotsBaromVisibWave heightAir tempDewpointWater temp
2017-Jul-22 04:30N 59°20' E 018°05'0 0.0
2017-Jul-22 04:00N 59°20' E 018°05'0 0.0
2017-Jul-22 03:30N 59°20' E 018°05'0 0.0
2017-Jul-22 03:00N 59°20' E 018°05'0 0.0
2017-Jul-22 02:30N 59°20' E 018°05'0 0.0
2017-Jul-22 02:00N 59°20' E 018°05'0 0.0
2017-Jul-22 01:30N 59°20' E 018°05'0 0.0
2017-Jul-22 01:00N 59°20' E 018°05'0 0.0
2017-Jul-22 00:30N 59°20' E 018°05'0 0.0
2017-Jul-22 00:00N 59°20' E 018°05'0 0.0
2017-Jul-21 23:24N 59°20' E 018°05'0 0.0
2017-Jul-21 23:00N 59°20' E 018°05'0 0.0
2017-Jul-21 22:30N 59°20' E 018°05'0 0.0
2017-Jul-21 22:00N 59°20' E 018°05'0 0.0
2017-Jul-21 21:30N 59°20' E 018°05'0 0.0
2017-Jul-21 21:00N 59°20' E 018°05'0 0.0
2017-Jul-21 20:30N 59°20' E 018°05'0 0.0
2017-Jul-21 20:00N 59°20' E 018°05'0 0.0
2017-Jul-21 19:30N 59°20' E 018°05'0 0.0
2017-Jul-21 19:00N 59°20' E 018°05'0 0.0
2017-Jul-21 18:30N 59°20' E 018°05'0 0.0
2017-Jul-21 18:00N 59°20' E 018°05'0 0.0
2017-Jul-21 17:30N 59°20' E 018°05'20 7.6
2017-Jul-21 14:54N 59°28' E 018°40'3 8.3
2017-Jul-21 14:30N 59°29' E 018°46'2 3.9
2017-Jul-21 13:57N 59°29' E 018°50'3 7.5
2017-Jul-21 13:30N 59°27' E 018°55'23 6.4
2017-Jul-21 09:56N 59°20' E 018°12'4 9.0
2017-Jul-21 09:30N 59°20' E 018°05'0 0.1
2017-Jul-21 08:49N 59°20' E 018°05'0 0.0
2017-Jul-21 08:25N 59°20' E 018°05'0 0.0
2017-Jul-21 08:00N 59°20' E 018°05'14 9.2
2017-Jul-21 06:30N 59°25' E 018°30'5 9.8
2017-Jul-21 06:01N 59°23' E 018°38'3 6.0
2017-Jul-21 05:30N 59°25' E 018°40'3 5.6
2017-Jul-21 04:59N 59°27' E 018°44'4 8.8
2017-Jul-21 04:30N 59°30' E 018°51'0 0.1
2017-Jul-21 03:16N 59°30' E 018°51'0 0.0
2017-Jul-21 02:52N 59°30' E 018°51'0 0.0
2017-Jul-21 02:22N 59°30' E 018°51'0 0.0
2017-Jul-21 01:58N 59°30' E 018°51'0 0.0
2017-Jul-21 01:28N 59°30' E 018°51'0 0.0
2017-Jul-21 00:58N 59°30' E 018°51'0 0.0
2017-Jul-21 00:28N 59°30' E 018°51'0 0.0
2017-Jul-20 23:52N 59°30' E 018°51'0 0.0
2017-Jul-20 23:22N 59°30' E 018°51'0 0.0
2017-Jul-20 22:34N 59°30' E 018°51'0 0.0
2017-Jul-20 22:28N 59°30' E 018°51'0 0.0
2017-Jul-20 21:58N 59°30' E 018°51'0 0.0
2017-Jul-20 21:22N 59°30' E 018°51'0 0.0
2017-Jul-20 20:55N 59°30' E 018°51'0 0.0
2017-Jul-20 20:19N 59°30' E 018°51'0 0.0
2017-Jul-20 19:55N 59°30' E 018°51'0 0.0
2017-Jul-20 19:25N 59°30' E 018°51'0 0.0
2017-Jul-20 18:52N 59°30' E 018°51'0 0.0
2017-Jul-20 18:28N 59°30' E 018°51'4 8.2
2017-Jul-20 18:00N 59°28' E 018°45'3 6.0
2017-Jul-20 17:30N 59°26' E 018°39'510.6
2017-Jul-20 17:00N 59°25' E 018°30'10 6.4
2017-Jul-20 15:25N 59°20' E 018°12'4 9.2
2017-Jul-20 15:00N 59°20' E 018°04'0 0.3
2017-Jul-20 13:56N 59°19' E 018°05'14 9.6
2017-Jul-20 12:30N 59°26' E 018°28'612.4
2017-Jul-20 11:59N 59°23' E 018°39'2 3.3
2017-Jul-20 11:30N 59°22' E 018°42'3 5.2
2017-Jul-20 10:58N 59°23' E 018°48'3 5.4
2017-Jul-20 10:26N 59°24' E 018°53'3 6.7
2017-Jul-20 10:00N 59°27' E 018°55'4 7.3
2017-Jul-20 09:30N 59°29' E 018°50'3 6.3
2017-Jul-20 09:00N 59°29' E 018°44'5 9.2
2017-Jul-20 08:30N 59°27' E 018°35'2 4.8
2017-Jul-20 08:00N 59°25' E 018°32'1210.5
2017-Jul-20 06:52N 59°20' E 018°12'4 9.8
2017-Jul-20 06:30N 59°20' E 018°04'0 0.1
2017-Jul-20 06:00N 59°20' E 018°05'0 0.0
2017-Jul-20 05:30N 59°20' E 018°05'0 0.0
2017-Jul-20 05:00N 59°20' E 018°05'0 0.0
2017-Jul-20 04:30N 59°20' E 018°05'0 0.0
2017-Jul-20 04:00N 59°20' E 018°05'0 0.0
2017-Jul-20 03:29N 59°20' E 018°05'0 0.0
2017-Jul-20 03:00N 59°20' E 018°05'0 0.0
2017-Jul-20 02:29N 59°20' E 018°05'0 0.0
2017-Jul-20 02:00N 59°20' E 018°05'0 0.0
2017-Jul-20 01:30N 59°20' E 018°05'0 0.0
2017-Jul-20 01:00N 59°20' E 018°05'0 0.0
2017-Jul-20 00:30N 59°20' E 018°05'0 0.0
2017-Jul-20 00:00N 59°20' E 018°05'0 0.0
2017-Jul-19 23:29N 59°20' E 018°05'0 0.0
2017-Jul-19 22:59N 59°20' E 018°05'0 0.0
2017-Jul-19 22:29N 59°20' E 018°05'0 0.0
2017-Jul-19 22:00N 59°20' E 018°05'0 0.0
2017-Jul-19 21:30N 59°20' E 018°05'0 0.0
2017-Jul-19 21:00N 59°20' E 018°05'0 0.8
2017-Jul-19 20:28N 59°19' E 018°05'19 9.0
2017-Jul-19 18:21N 59°26' E 018°40'2 6.4
2017-Jul-19 18:00N 59°27' E 018°44'4 7.3
2017-Jul-19 17:31N 59°29' E 018°50'3 6.1
2017-Jul-19 17:00N 59°29' E 018°43'19 8.9
2017-Jul-19 14:48N 59°19' E 018°10'310.1
2017-Jul-19 14:30N 59°20' E 018°04'0 0.0
2017-Jul-19 14:00N 59°20' E 018°04'0 0.0
2017-Jul-19 13:24N 59°20' E 018°04'0 0.0
2017-Jul-19 12:42N 59°20' E 018°04'0 0.0
2017-Jul-19 12:30N 59°20' E 018°04'0 0.0
2017-Jul-19 08:21N 59°20' E 018°04'26 7.0
2017-Jul-19 04:36N 59°25' E 018°55'1 9.5
2017-Jul-19 04:28N 59°27' E 018°56'0 0.5
2017-Jul-19 03:59N 59°27' E 018°55'0 0.0
2017-Jul-19 03:17N 59°27' E 018°55'0 0.0
2017-Jul-19 02:59N 59°27' E 018°55'0 0.0
2017-Jul-19 02:29N 59°27' E 018°55'0 0.0
2017-Jul-19 01:59N 59°27' E 018°55'0 0.0
2017-Jul-19 01:29N 59°27' E 018°55'0 0.0
2017-Jul-19 00:59N 59°27' E 018°55'0 0.0
2017-Jul-19 00:23N 59°27' E 018°55'0 0.0
2017-Jul-18 23:59N 59°27' E 018°55'0 0.0
2017-Jul-18 23:29N 59°27' E 018°55'0 0.0
2017-Jul-18 22:59N 59°27' E 018°55'0 0.0
2017-Jul-18 22:29N 59°27' E 018°55'0 0.0
2017-Jul-18 21:59N 59°27' E 018°55'0 0.0
2017-Jul-18 21:29N 59°27' E 018°55'0 0.0
2017-Jul-18 20:59N 59°27' E 018°55'0 0.0
2017-Jul-18 20:30N 59°27' E 018°55'0 0.0
2017-Jul-18 19:54N 59°27' E 018°55'0 0.0
2017-Jul-18 19:29N 59°27' E 018°55'0 0.0
2017-Jul-18 18:59N 59°27' E 018°55'0 0.0
2017-Jul-18 18:29N 59°27' E 018°55'0 0.0
2017-Jul-18 17:59N 59°27' E 018°55'0 0.0
2017-Jul-18 17:29N 59°27' E 018°55'2 5.0
2017-Jul-18 17:00N 59°24' E 018°53'3 4.3
2017-Jul-18 16:15N 59°24' E 018°47'2 3.2
2017-Jul-18 15:36N 59°23' E 018°43'17 9.7
2017-Jul-18 13:53N 59°20' E 018°11'3 9.2
2017-Jul-18 13:30N 59°20' E 018°05'0 0.1
2017-Jul-18 12:58N 59°20' E 018°05'3 0.7
2017-Jul-18 08:07N 59°20' E 018°11'211.4
2017-Jul-18 07:54N 59°19' E 018°07'1 3.1
2017-Jul-18 07:29N 59°20' E 018°05'0 0.0
2017-Jul-18 06:59N 59°20' E 018°05'0 0.0
2017-Jul-18 06:23N 59°20' E 018°05'0 0.0
2017-Jul-18 05:59N 59°20' E 018°05'3 0.2
2017-Jul-17 14:22N 59°19' E 018°10'3 8.2
2017-Jul-17 14:00N 59°20' E 018°04'0 0.0
2017-Jul-17 13:30N 59°20' E 018°05'20 8.3
2017-Jul-17 11:06N 59°28' E 018°41'214.0
2017-Jul-17 10:58N 59°29' E 018°43'3 7.5
2017-Jul-17 10:30N 59°30' E 018°50'5 8.6
2017-Jul-17 09:57N 59°26' E 018°56'23 6.4
2017-Jul-17 06:21N 59°20' E 018°12'411.3
2017-Jul-17 06:00N 59°20' E 018°04'0 0.1
2017-Jul-17 05:27N 59°20' E 018°04'0 0.0
2017-Jul-17 04:57N 59°20' E 018°04'0 0.0
2017-Jul-17 04:27N 59°20' E 018°04'0 0.0
2017-Jul-17 03:51N 59°20' E 018°04'0 0.0
2017-Jul-17 03:27N 59°20' E 018°04'0 0.0
2017-Jul-17 02:57N 59°20' E 018°04'0 0.0
2017-Jul-17 02:27N 59°20' E 018°04'0 0.0
2017-Jul-17 01:57N 59°20' E 018°04'0 0.0
2017-Jul-17 01:27N 59°20' E 018°04'0 0.0
2017-Jul-17 00:57N 59°20' E 018°04'0 0.0
2017-Jul-17 00:27N 59°20' E 018°04'0 0.0
2017-Jul-16 23:57N 59°20' E 018°04'0 0.0
2017-Jul-16 23:15N 59°20' E 018°04'0 0.0
2017-Jul-16 22:57N 59°20' E 018°04'0 0.0
2017-Jul-16 22:27N 59°20' E 018°04'0 0.0
2017-Jul-16 21:57N 59°20' E 018°04'0 0.0
2017-Jul-16 21:27N 59°20' E 018°04'0 0.0
2017-Jul-16 20:57N 59°20' E 018°04'0 0.0
2017-Jul-16 20:27N 59°20' E 018°04'0 0.0
2017-Jul-16 19:57N 59°20' E 018°04'0 0.0
2017-Jul-16 19:27N 59°20' E 018°04'0 0.0
2017-Jul-16 18:57N 59°20' E 018°04'0 0.0
2017-Jul-16 18:27N 59°20' E 018°04'3 6.0
2017-Jul-16 17:56N 59°19' E 018°11'1011.7
2017-Jul-16 17:03N 59°25' E 018°27'314.8
2017-Jul-16 16:50N 59°25' E 018°33'1 4.2
2017-Jul-16 16:30N 59°26' E 018°35'3 7.0
2017-Jul-16 16:01N 59°28' E 018°41'510.6
2017-Jul-16 15:30N 59°30' E 018°51'4 7.9
2017-Jul-16 15:00N 59°27' E 018°46'714.8
2017-Jul-16 14:31N 59°25' E 018°32'611.4
2017-Jul-16 14:00N 59°24' E 018°21'816.4
2017-Jul-16 13:31N 59°19' E 018°08'2 3.6
2017-Jul-16 12:58N 59°20' E 018°05'3 7.4
2017-Jul-16 12:30N 59°20' E 018°11'712.5
2017-Jul-16 11:58N 59°24' E 018°21'3 7.5
2017-Jul-16 11:30N 59°25' E 018°28'611.4
2017-Jul-16 11:00N 59°26' E 018°39'2 3.6
2017-Jul-16 10:30N 59°26' E 018°42'2 3.0
2017-Jul-16 09:49N 59°28' E 018°45'0 0.0
2017-Jul-16 09:30N 59°28' E 018°45'2 4.4
2017-Jul-16 09:00N 59°26' E 018°42'1 2.9
2017-Jul-16 08:30N 59°26' E 018°39'510.4
2017-Jul-16 08:00N 59°25' E 018°29'4 8.2
2017-Jul-16 07:30N 59°24' E 018°21'5 9.2
2017-Jul-16 07:00N 59°21' E 018°14'510.4
2017-Jul-16 06:30N 59°20' E 018°04'0 0.1
2017-Jul-16 05:56N 59°20' E 018°04'0 0.0
2017-Jul-16 05:26N 59°20' E 018°04'0 0.0
2017-Jul-16 04:56N 59°20' E 018°04'0 0.0
2017-Jul-16 04:20N 59°20' E 018°04'0 0.0
2017-Jul-16 03:56N 59°20' E 018°04'0 0.0
2017-Jul-16 03:26N 59°20' E 018°04'0 0.0
2017-Jul-16 02:56N 59°20' E 018°04'0 0.0
2017-Jul-16 02:27N 59°20' E 018°04'0 0.0
2017-Jul-16 01:56N 59°20' E 018°04'0 0.0
2017-Jul-16 01:26N 59°20' E 018°04'0 0.0
2017-Jul-16 00:56N 59°20' E 018°04'0 0.0
2017-Jul-16 00:30N 59°20' E 018°04'0 0.0
2017-Jul-15 23:50N 59°20' E 018°04'0 0.0
2017-Jul-15 23:26N 59°20' E 018°04'0 0.0
2017-Jul-15 22:56N 59°20' E 018°04'0 0.0
2017-Jul-15 22:26N 59°20' E 018°04'0 0.0
2017-Jul-15 21:56N 59°20' E 018°04'0 0.0
2017-Jul-15 21:26N 59°20' E 018°04'0 0.0
2017-Jul-15 20:56N 59°20' E 018°04'0 0.0
2017-Jul-15 20:14N 59°20' E 018°04'0 0.0
2017-Jul-15 19:56N 59°20' E 018°04'0 0.0
2017-Jul-15 19:26N 59°20' E 018°04'0 0.0
2017-Jul-15 18:56N 59°20' E 018°04'0 0.0
2017-Jul-15 18:26N 59°20' E 018°04'0 0.0
2017-Jul-15 17:56N 59°20' E 018°04'0 0.0
2017-Jul-15 17:26N 59°20' E 018°04'0 0.0
2017-Jul-15 16:56N 59°20' E 018°04'0 0.0
2017-Jul-15 16:26N 59°20' E 018°04'0 0.0
2017-Jul-15 15:56N 59°20' E 018°04'0 0.1
2017-Jul-15 15:31N 59°20' E 018°04'510.4
2017-Jul-15 15:00N 59°21' E 018°14'4 4.3
2017-Jul-15 14:00N 59°24' E 018°21'914.9
2017-Jul-15 13:25N 59°19' E 018°06'0 0.8
2017-Jul-15 13:00N 59°19' E 018°06'510.3
2017-Jul-15 12:30N 59°22' E 018°15'5 9.8
2017-Jul-15 12:00N 59°25' E 018°21'5 9.9
2017-Jul-15 11:30N 59°25' E 018°31'3 5.5
2017-Jul-15 11:00N 59°27' E 018°35'5 9.4
2017-Jul-15 10:30N 59°29' E 018°44'4 7.4
2017-Jul-15 10:00N 59°30' E 018°51'1 2.5
2017-Jul-15 09:30N 59°29' E 018°50'4 8.5
2017-Jul-15 09:00N 59°29' E 018°41'4 7.1
2017-Jul-15 08:30N 59°27' E 018°36'2 4.2
2017-Jul-15 08:00N 59°25' E 018°34'1211.3
2017-Jul-15 06:54N 59°20' E 018°12'4 7.1
2017-Jul-15 06:24N 59°20' E 018°05'0 0.0
2017-Jul-15 06:00N 59°20' E 018°05'0 0.0
2017-Jul-15 05:30N 59°20' E 018°05'0 0.0
2017-Jul-15 05:00N 59°20' E 018°05'0 0.0
2017-Jul-15 04:30N 59°20' E 018°05'0 0.0
2017-Jul-15 04:00N 59°20' E 018°05'0 0.0
2017-Jul-15 03:24N 59°20' E 018°05'0 0.0
2017-Jul-15 03:00N 59°20' E 018°05'0 0.0
2017-Jul-15 02:30N 59°20' E 018°05'0 0.0
2017-Jul-15 02:00N 59°20' E 018°05'0 0.0
2017-Jul-15 01:30N 59°20' E 018°05'0 0.0
2017-Jul-15 01:00N 59°20' E 018°05'0 0.0
2017-Jul-15 00:30N 59°20' E 018°05'0 0.0
2017-Jul-15 00:00N 59°20' E 018°05'0 0.0
2017-Jul-14 23:30N 59°20' E 018°05'0 0.0
2017-Jul-14 23:00N 59°20' E 018°05'0 0.0
2017-Jul-14 22:30N 59°20' E 018°05'0 0.0
2017-Jul-14 22:00N 59°20' E 018°05'0 0.0
2017-Jul-14 21:30N 59°20' E 018°05'0 0.0
2017-Jul-14 21:00N 59°20' E 018°05'0 0.0
2017-Jul-14 20:30N 59°20' E 018°05'0 0.0
2017-Jul-14 19:54N 59°20' E 018°05'0 0.0
2017-Jul-14 19:30N 59°20' E 018°05'0 0.0
2017-Jul-14 19:00N 59°20' E 018°05'0 0.0
2017-Jul-14 18:30N 59°20' E 018°05'0 0.0
2017-Jul-14 18:00N 59°20' E 018°05'0 0.0
2017-Jul-14 17:30N 59°20' E 018°05'3 4.6
2017-Jul-14 16:53N 59°19' E 018°10'714.1
2017-Jul-14 16:23N 59°24' E 018°21'3 8.3
2017-Jul-14 15:58N 59°26' E 018°26'4 9.4
2017-Jul-14 15:30N 59°26' E 018°35'3 5.0
2017-Jul-14 15:00N 59°28' E 018°38'4 8.9
2017-Jul-14 14:31N 59°29' E 018°46'2 3.1
2017-Jul-14 13:56N 59°29' E 018°50'3 7.1
2017-Jul-14 13:30N 59°27' E 018°53'2 4.0
2017-Jul-14 13:01N 59°25' E 018°54'3 5.6
2017-Jul-14 12:30N 59°23' E 018°49'2 3.5
2017-Jul-14 12:01N 59°23' E 018°46'2 4.7
2017-Jul-14 11:30N 59°22' E 018°42'16 9.8
2017-Jul-14 09:51N 59°19' E 018°11'3 9.1
2017-Jul-14 09:30N 59°20' E 018°04'0 0.0
2017-Jul-14 08:52N 59°20' E 018°05'0 0.0
2017-Jul-14 08:22N 59°20' E 018°05'0 0.2
2017-Jul-14 08:01N 59°20' E 018°05'19 7.5
2017-Jul-14 05:27N 59°25' E 018°40'3 6.7
2017-Jul-14 04:59N 59°28' E 018°44'4 6.1
2017-Jul-14 04:19N 59°30' E 018°51'0 0.0
2017-Jul-14 03:43N 59°30' E 018°51'0 0.0
2017-Jul-14 03:25N 59°30' E 018°51'0 0.0
2017-Jul-14 02:13N 59°30' E 018°51'0 0.0
2017-Jul-13 18:37N 59°30' E 018°51'111.1
2017-Jul-13 18:30N 59°29' E 018°50'20 6.7
2017-Jul-13 15:34N 59°21' E 018°15'113.5
2017-Jul-13 15:30N 59°20' E 018°13'4 9.0
2017-Jul-13 15:00N 59°20' E 018°04'0 0.1
2017-Jul-13 14:28N 59°20' E 018°05'1 1.2
2017-Jul-13 14:00N 59°19' E 018°05'5 9.8
2017-Jul-13 13:29N 59°21' E 018°14'5 9.3
2017-Jul-13 13:00N 59°24' E 018°21'5 9.5
2017-Jul-13 12:27N 59°25' E 018°31'12 5.1
2017-Jul-13 10:01N 59°27' E 018°55'0 6.1
2017-Jul-13 10:00N 59°27' E 018°55'4 6.7
2017-Jul-13 09:26N 59°29' E 018°50'8 6.7
2017-Jul-13 08:11N 59°26' E 018°35'212.3
2017-Jul-13 08:00N 59°25' E 018°30'5 9.5
2017-Jul-13 07:31N 59°24' E 018°21'4 8.9
2017-Jul-13 07:01N 59°21' E 018°14'510.5
2017-Jul-13 06:31N 59°20' E 018°04'0 0.1
2017-Jul-13 06:00N 59°20' E 018°05'0 0.0
2017-Jul-13 05:30N 59°20' E 018°05'0 0.0
2017-Jul-13 05:00N 59°20' E 018°05'0 0.0
2017-Jul-13 04:30N 59°20' E 018°05'0 0.0
2017-Jul-13 04:00N 59°20' E 018°05'0 0.0
2017-Jul-13 03:30N 59°20' E 018°05'0 0.0
2017-Jul-13 03:00N 59°20' E 018°05'0 0.0
2017-Jul-13 02:30N 59°20' E 018°05'0 0.0
2017-Jul-13 02:00N 59°20' E 018°05'0 0.0
2017-Jul-13 01:30N 59°20' E 018°05'0 0.0
2017-Jul-13 01:00N 59°20' E 018°05'0 0.0
2017-Jul-13 00:30N 59°20' E 018°05'0 0.0
2017-Jul-13 00:00N 59°20' E 018°05'0 0.0
2017-Jul-12 23:30N 59°20' E 018°05'0 0.0
2017-Jul-12 23:00N 59°20' E 018°05'0 0.0
2017-Jul-12 22:27N 59°20' E 018°05'0 0.0
2017-Jul-12 22:00N 59°20' E 018°05'0 0.0
2017-Jul-12 21:27N 59°20' E 018°05'0 0.0
2017-Jul-12 21:00N 59°20' E 018°05'0 0.0
2017-Jul-12 20:30N 59°20' E 018°05'4 7.9
2017-Jul-12 20:00N 59°20' E 018°12'612.7
2017-Jul-12 19:30N 59°24' E 018°21'4 7.7
2017-Jul-12 18:57N 59°25' E 018°30'511.4
2017-Jul-12 18:30N 59°26' E 018°39'3 6.9
2017-Jul-12 18:00N 59°28' E 018°45'2 3.6
2017-Jul-12 17:31N 59°30' E 018°46'4 7.1
2017-Jul-12 17:00N 59°28' E 018°41'3 5.7
2017-Jul-12 16:29N 59°27' E 018°35'4 8.0
2017-Jul-12 16:00N 59°25' E 018°28'4 6.7
2017-Jul-12 15:28N 59°24' E 018°21'5 9.9
2017-Jul-12 15:00N 59°21' E 018°15'5 5.2
2017-Jul-12 13:59N 59°20' E 018°04'0 0.0
2017-Jul-12 13:26N 59°20' E 018°04'0 0.0
2017-Jul-12 12:56N 59°20' E 018°04'0 0.0
2017-Jul-12 12:23N 59°20' E 018°04'0 0.0
2017-Jul-12 11:56N 59°20' E 018°04'0 0.0
2017-Jul-12 11:26N 59°20' E 018°04'0 0.0
2017-Jul-12 10:56N 59°20' E 018°04'0 0.0
2017-Jul-12 10:26N 59°20' E 018°04'0 0.0
2017-Jul-12 09:59N 59°20' E 018°04'0 0.0
2017-Jul-12 09:29N 59°20' E 018°04'0 0.0
2017-Jul-12 08:56N 59°20' E 018°04'0 0.0
2017-Jul-12 08:26N 59°20' E 018°04'4 8.4
2017-Jul-12 08:00N 59°20' E 018°12'5 9.8
2017-Jul-12 07:31N 59°23' E 018°19'3 6.4
2017-Jul-12 07:00N 59°26' E 018°22'4 7.3
2017-Jul-12 06:28N 59°25' E 018°30'714.4
2017-Jul-12 06:00N 59°22' E 018°42'3 6.0
2017-Jul-12 05:30N 59°24' E 018°47'3 5.6
2017-Jul-12 04:59N 59°23' E 018°52'  
Track history (hours):
 
Tides and Currents Weather Stations Pressure Air Temp Water Temp Dewpoint Dewpoint Depression Visibility Wind Speed Wind Dir Waves Ship Positions

Varmdo

Last reported at 2017-Jul-22 04:30 UTC. Time now 2017-Jul-22 04:51 UTC.
Position N 59°20' E 018°05'.

Length 38 m; draft 2.5 m.

Type: Passenger vessel. MMSI: 265520390.

Date/timePositionNaut miles runAvg speedWind from/ knotsBaromVisibWave heightAir tempDewpointWater temp
2017-Jul-22 04:30N 59°20' E 018°05'0 0.0
2017-Jul-22 04:00N 59°20' E 018°05'0 0.0
2017-Jul-22 03:30N 59°20' E 018°05'0 0.0
2017-Jul-22 03:00N 59°20' E 018°05'0 0.0
2017-Jul-22 02:30N 59°20' E 018°05'0 0.0
2017-Jul-22 02:00N 59°20' E 018°05'0 0.0
2017-Jul-22 01:30N 59°20' E 018°05'0 0.0
2017-Jul-22 01:00N 59°20' E 018°05'0 0.0
2017-Jul-22 00:30N 59°20' E 018°05'0 0.0
2017-Jul-22 00:00N 59°20' E 018°05'0 0.0
2017-Jul-21 23:24N 59°20' E 018°05'0 0.0
2017-Jul-21 23:00N 59°20' E 018°05'0 0.0
2017-Jul-21 22:30N 59°20' E 018°05'0 0.0
2017-Jul-21 22:00N 59°20' E 018°05'0 0.0
2017-Jul-21 21:30N 59°20' E 018°05'0 0.0
2017-Jul-21 21:00N 59°20' E 018°05'0 0.0
2017-Jul-21 20:30N 59°20' E 018°05'0 0.0
2017-Jul-21 20:00N 59°20' E 018°05'0 0.0
2017-Jul-21 19:30N 59°20' E 018°05'0 0.0
2017-Jul-21 19:00N 59°20' E 018°05'0 0.0
2017-Jul-21 18:30N 59°20' E 018°05'0 0.0
2017-Jul-21 18:00N 59°20' E 018°05'0 0.0
2017-Jul-21 17:30N 59°20' E 018°05'20 7.6
2017-Jul-21 14:54N 59°28' E 018°40'3 8.3
2017-Jul-21 14:30N 59°29' E 018°46'2 3.9
2017-Jul-21 13:57N 59°29' E 018°50'3 7.5
2017-Jul-21 13:30N 59°27' E 018°55'23 6.4
2017-Jul-21 09:56N 59°20' E 018°12'4 9.0
2017-Jul-21 09:30N 59°20' E 018°05'0 0.1
2017-Jul-21 08:49N 59°20' E 018°05'0 0.0
2017-Jul-21 08:25N 59°20' E 018°05'0 0.0
2017-Jul-21 08:00N 59°20' E 018°05'14 9.2
2017-Jul-21 06:30N 59°25' E 018°30'5 9.8
2017-Jul-21 06:01N 59°23' E 018°38'3 6.0
2017-Jul-21 05:30N 59°25' E 018°40'3 5.6
2017-Jul-21 04:59N 59°27' E 018°44'4 8.8
2017-Jul-21 04:30N 59°30' E 018°51'0 0.1
2017-Jul-21 03:16N 59°30' E 018°51'0 0.0
2017-Jul-21 02:52N 59°30' E 018°51'0 0.0
2017-Jul-21 02:22N 59°30' E 018°51'0 0.0
2017-Jul-21 01:58N 59°30' E 018°51'0 0.0
2017-Jul-21 01:28N 59°30' E 018°51'0 0.0
2017-Jul-21 00:58N 59°30' E 018°51'0 0.0
2017-Jul-21 00:28N 59°30' E 018°51'0 0.0
2017-Jul-20 23:52N 59°30' E 018°51'0 0.0
2017-Jul-20 23:22N 59°30' E 018°51'0 0.0
2017-Jul-20 22:34N 59°30' E 018°51'0 0.0
2017-Jul-20 22:28N 59°30' E 018°51'0 0.0
2017-Jul-20 21:58N 59°30' E 018°51'0 0.0
2017-Jul-20 21:22N 59°30' E 018°51'0 0.0
2017-Jul-20 20:55N 59°30' E 018°51'0 0.0
2017-Jul-20 20:19N 59°30' E 018°51'0 0.0
2017-Jul-20 19:55N 59°30' E 018°51'0 0.0
2017-Jul-20 19:25N 59°30' E 018°51'0 0.0
2017-Jul-20 18:52N 59°30' E 018°51'0 0.0
2017-Jul-20 18:28N 59°30' E 018°51'4 8.2
2017-Jul-20 18:00N 59°28' E 018°45'3 6.0
2017-Jul-20 17:30N 59°26' E 018°39'510.6
2017-Jul-20 17:00N 59°25' E 018°30'10 6.4
2017-Jul-20 15:25N 59°20' E 018°12'4 9.2
2017-Jul-20 15:00N 59°20' E 018°04'0 0.3
2017-Jul-20 13:56N 59°19' E 018°05'14 9.6
2017-Jul-20 12:30N 59°26' E 018°28'612.4
2017-Jul-20 11:59N 59°23' E 018°39'2 3.3
2017-Jul-20 11:30N 59°22' E 018°42'3 5.2
2017-Jul-20 10:58N 59°23' E 018°48'3 5.4
2017-Jul-20 10:26N 59°24' E 018°53'3 6.7
2017-Jul-20 10:00N 59°27' E 018°55'4 7.3
2017-Jul-20 09:30N 59°29' E 018°50'3 6.3
2017-Jul-20 09:00N 59°29' E 018°44'5 9.2
2017-Jul-20 08:30N 59°27' E 018°35'2 4.8
2017-Jul-20 08:00N 59°25' E 018°32'1210.5
2017-Jul-20 06:52N 59°20' E 018°12'4 9.8
2017-Jul-20 06:30N 59°20' E 018°04'0 0.1
2017-Jul-20 06:00N 59°20' E 018°05'0 0.0
2017-Jul-20 05:30N 59°20' E 018°05'0 0.0
2017-Jul-20 05:00N 59°20' E 018°05'0 0.0
2017-Jul-20 04:30N 59°20' E 018°05'0 0.0
2017-Jul-20 04:00N 59°20' E 018°05'0 0.0
2017-Jul-20 03:29N 59°20' E 018°05'0 0.0
2017-Jul-20 03:00N 59°20' E 018°05'0 0.0
2017-Jul-20 02:29N 59°20' E 018°05'0 0.0
2017-Jul-20 02:00N 59°20' E 018°05'0 0.0
2017-Jul-20 01:30N 59°20' E 018°05'0 0.0
2017-Jul-20 01:00N 59°20' E 018°05'0 0.0
2017-Jul-20 00:30N 59°20' E 018°05'0 0.0
2017-Jul-20 00:00N 59°20' E 018°05'0 0.0
2017-Jul-19 23:29N 59°20' E 018°05'0 0.0
2017-Jul-19 22:59N 59°20' E 018°05'0 0.0
2017-Jul-19 22:29N 59°20' E 018°05'0 0.0
2017-Jul-19 22:00N 59°20' E 018°05'0 0.0
2017-Jul-19 21:30N 59°20' E 018°05'0 0.0
2017-Jul-19 21:00N 59°20' E 018°05'0 0.8
2017-Jul-19 20:28N 59°19' E 018°05'19 9.0
2017-Jul-19 18:21N 59°26' E 018°40'2 6.4
2017-Jul-19 18:00N 59°27' E 018°44'4 7.3
2017-Jul-19 17:31N 59°29' E 018°50'3 6.1
2017-Jul-19 17:00N 59°29' E 018°43'19 8.9
2017-Jul-19 14:48N 59°19' E 018°10'310.1
2017-Jul-19 14:30N 59°20' E 018°04'0 0.0
2017-Jul-19 14:00N 59°20' E 018°04'0 0.0
2017-Jul-19 13:24N 59°20' E 018°04'0 0.0
2017-Jul-19 12:42N 59°20' E 018°04'0 0.0
2017-Jul-19 12:30N 59°20' E 018°04'0 0.0
2017-Jul-19 08:21N 59°20' E 018°04'26 7.0
2017-Jul-19 04:36N 59°25' E 018°55'1 9.5
2017-Jul-19 04:28N 59°27' E 018°56'0 0.5
2017-Jul-19 03:59N 59°27' E 018°55'0 0.0
2017-Jul-19 03:17N 59°27' E 018°55'0 0.0
2017-Jul-19 02:59N 59°27' E 018°55'0 0.0
2017-Jul-19 02:29N 59°27' E 018°55'0 0.0
2017-Jul-19 01:59N 59°27' E 018°55'0 0.0
2017-Jul-19 01:29N 59°27' E 018°55'0 0.0
2017-Jul-19 00:59N 59°27' E 018°55'0 0.0
2017-Jul-19 00:23N 59°27' E 018°55'0 0.0
2017-Jul-18 23:59N 59°27' E 018°55'0 0.0
2017-Jul-18 23:29N 59°27' E 018°55'0 0.0
2017-Jul-18 22:59N 59°27' E 018°55'0 0.0
2017-Jul-18 22:29N 59°27' E 018°55'0 0.0
2017-Jul-18 21:59N 59°27' E 018°55'0 0.0
2017-Jul-18 21:29N 59°27' E 018°55'0 0.0
2017-Jul-18 20:59N 59°27' E 018°55'0 0.0
2017-Jul-18 20:30N 59°27' E 018°55'0 0.0
2017-Jul-18 19:54N 59°27' E 018°55'0 0.0
2017-Jul-18 19:29N 59°27' E 018°55'0 0.0
2017-Jul-18 18:59N 59°27' E 018°55'0 0.0
2017-Jul-18 18:29N 59°27' E 018°55'0 0.0
2017-Jul-18 17:59N 59°27' E 018°55'0 0.0
2017-Jul-18 17:29N 59°27' E 018°55'2 5.0
2017-Jul-18 17:00N 59°24' E 018°53'3 4.3
2017-Jul-18 16:15N 59°24' E 018°47'2 3.2
2017-Jul-18 15:36N 59°23' E 018°43'17 9.7
2017-Jul-18 13:53N 59°20' E 018°11'3 9.2
2017-Jul-18 13:30N 59°20' E 018°05'0 0.1
2017-Jul-18 12:58N 59°20' E 018°05'3 0.7
2017-Jul-18 08:07N 59°20' E 018°11'211.4
2017-Jul-18 07:54N 59°19' E 018°07'1 3.1
2017-Jul-18 07:29N 59°20' E 018°05'0 0.0
2017-Jul-18 06:59N 59°20' E 018°05'0 0.0
2017-Jul-18 06:23N 59°20' E 018°05'0 0.0
2017-Jul-18 05:59N 59°20' E 018°05'3 0.2
2017-Jul-17 14:22N 59°19' E 018°10'3 8.2
2017-Jul-17 14:00N 59°20' E 018°04'0 0.0
2017-Jul-17 13:30N 59°20' E 018°05'20 8.3
2017-Jul-17 11:06N 59°28' E 018°41'214.0
2017-Jul-17 10:58N 59°29' E 018°43'3 7.5
2017-Jul-17 10:30N 59°30' E 018°50'5 8.6
2017-Jul-17 09:57N 59°26' E 018°56'23 6.4
2017-Jul-17 06:21N 59°20' E 018°12'411.3
2017-Jul-17 06:00N 59°20' E 018°04'0 0.1
2017-Jul-17 05:27N 59°20' E 018°04'0 0.0
2017-Jul-17 04:57N 59°20' E 018°04'0 0.0
2017-Jul-17 04:27N 59°20' E 018°04'0 0.0
2017-Jul-17 03:51N 59°20' E 018°04'0 0.0
2017-Jul-17 03:27N 59°20' E 018°04'0 0.0
2017-Jul-17 02:57N 59°20' E 018°04'0 0.0
2017-Jul-17 02:27N 59°20' E 018°04'0 0.0
2017-Jul-17 01:57N 59°20' E 018°04'0 0.0
2017-Jul-17 01:27N 59°20' E 018°04'0 0.0
2017-Jul-17 00:57N 59°20' E 018°04'0 0.0
2017-Jul-17 00:27N 59°20' E 018°04'0 0.0
2017-Jul-16 23:57N 59°20' E 018°04'0 0.0
2017-Jul-16 23:15N 59°20' E 018°04'0 0.0
2017-Jul-16 22:57N 59°20' E 018°04'0 0.0
2017-Jul-16 22:27N 59°20' E 018°04'0 0.0
2017-Jul-16 21:57N 59°20' E 018°04'0 0.0
2017-Jul-16 21:27N 59°20' E 018°04'0 0.0
2017-Jul-16 20:57N 59°20' E 018°04'0 0.0
2017-Jul-16 20:27N 59°20' E 018°04'0 0.0
2017-Jul-16 19:57N 59°20' E 018°04'0 0.0
2017-Jul-16 19:27N 59°20' E 018°04'0 0.0
2017-Jul-16 18:57N 59°20' E 018°04'0 0.0
2017-Jul-16 18:27N 59°20' E 018°04'3 6.0
2017-Jul-16 17:56N 59°19' E 018°11'1011.7
2017-Jul-16 17:03N 59°25' E 018°27'314.8
2017-Jul-16 16:50N 59°25' E 018°33'1 4.2
2017-Jul-16 16:30N 59°26' E 018°35'3 7.0
2017-Jul-16 16:01N 59°28' E 018°41'510.6
2017-Jul-16 15:30N 59°30' E 018°51'4 7.9
2017-Jul-16 15:00N 59°27' E 018°46'714.8
2017-Jul-16 14:31N 59°25' E 018°32'611.4
2017-Jul-16 14:00N 59°24' E 018°21'816.4
2017-Jul-16 13:31N 59°19' E 018°08'2 3.6
2017-Jul-16 12:58N 59°20' E 018°05'3 7.4
2017-Jul-16 12:30N 59°20' E 018°11'712.5
2017-Jul-16 11:58N 59°24' E 018°21'3 7.5
2017-Jul-16 11:30N 59°25' E 018°28'611.4
2017-Jul-16 11:00N 59°26' E 018°39'2 3.6
2017-Jul-16 10:30N 59°26' E 018°42'2 3.0
2017-Jul-16 09:49N 59°28' E 018°45'0 0.0
2017-Jul-16 09:30N 59°28' E 018°45'2 4.4
2017-Jul-16 09:00N 59°26' E 018°42'1 2.9
2017-Jul-16 08:30N 59°26' E 018°39'510.4
2017-Jul-16 08:00N 59°25' E 018°29'4 8.2
2017-Jul-16 07:30N 59°24' E 018°21'5 9.2
2017-Jul-16 07:00N 59°21' E 018°14'510.4
2017-Jul-16 06:30N 59°20' E 018°04'0 0.1
2017-Jul-16 05:56N 59°20' E 018°04'0 0.0
2017-Jul-16 05:26N 59°20' E 018°04'0 0.0
2017-Jul-16 04:56N 59°20' E 018°04'0 0.0
2017-Jul-16 04:20N 59°20' E 018°04'0 0.0
2017-Jul-16 03:56N 59°20' E 018°04'0 0.0
2017-Jul-16 03:26N 59°20' E 018°04'0 0.0
2017-Jul-16 02:56N 59°20' E 018°04'0 0.0
2017-Jul-16 02:27N 59°20' E 018°04'0 0.0
2017-Jul-16 01:56N 59°20' E 018°04'0 0.0
2017-Jul-16 01:26N 59°20' E 018°04'0 0.0
2017-Jul-16 00:56N 59°20' E 018°04'0 0.0
2017-Jul-16 00:30N 59°20' E 018°04'0 0.0
2017-Jul-15 23:50N 59°20' E 018°04'0 0.0
2017-Jul-15 23:26N 59°20' E 018°04'0 0.0
2017-Jul-15 22:56N 59°20' E 018°04'0 0.0
2017-Jul-15 22:26N 59°20' E 018°04'0 0.0
2017-Jul-15 21:56N 59°20' E 018°04'0 0.0
2017-Jul-15 21:26N 59°20' E 018°04'0 0.0
2017-Jul-15 20:56N 59°20' E 018°04'0 0.0
2017-Jul-15 20:14N 59°20' E 018°04'0 0.0
2017-Jul-15 19:56N 59°20' E 018°04'0 0.0
2017-Jul-15 19:26N 59°20' E 018°04'0 0.0
2017-Jul-15 18:56N 59°20' E 018°04'0 0.0
2017-Jul-15 18:26N 59°20' E 018°04'0 0.0
2017-Jul-15 17:56N 59°20' E 018°04'0 0.0
2017-Jul-15 17:26N 59°20' E 018°04'0 0.0
2017-Jul-15 16:56N 59°20' E 018°04'0 0.0
2017-Jul-15 16:26N 59°20' E 018°04'0 0.0
2017-Jul-15 15:56N 59°20' E 018°04'0 0.1
2017-Jul-15 15:31N 59°20' E 018°04'510.4
2017-Jul-15 15:00N 59°21' E 018°14'4 4.3
2017-Jul-15 14:00N 59°24' E 018°21'914.9
2017-Jul-15 13:25N 59°19' E 018°06'0 0.8
2017-Jul-15 13:00N 59°19' E 018°06'510.3
2017-Jul-15 12:30N 59°22' E 018°15'5 9.8
2017-Jul-15 12:00N 59°25' E 018°21'5 9.9
2017-Jul-15 11:30N 59°25' E 018°31'3 5.5
2017-Jul-15 11:00N 59°27' E 018°35'5 9.4
2017-Jul-15 10:30N 59°29' E 018°44'4 7.4
2017-Jul-15 10:00N 59°30' E 018°51'1 2.5
2017-Jul-15 09:30N 59°29' E 018°50'4 8.5
2017-Jul-15 09:00N 59°29' E 018°41'4 7.1
2017-Jul-15 08:30N 59°27' E 018°36'2 4.2
2017-Jul-15 08:00N 59°25' E 018°34'1211.3
2017-Jul-15 06:54N 59°20' E 018°12'4 7.1
2017-Jul-15 06:24N 59°20' E 018°05'0 0.0
2017-Jul-15 06:00N 59°20' E 018°05'0 0.0
2017-Jul-15 05:30N 59°20' E 018°05'0 0.0
2017-Jul-15 05:00N 59°20' E 018°05'0 0.0
2017-Jul-15 04:30N 59°20' E 018°05'0 0.0
2017-Jul-15 04:00N 59°20' E 018°05'0 0.0
2017-Jul-15 03:24N 59°20' E 018°05'0 0.0
2017-Jul-15 03:00N 59°20' E 018°05'0 0.0
2017-Jul-15 02:30N 59°20' E 018°05'0 0.0
2017-Jul-15 02:00N 59°20' E 018°05'0 0.0
2017-Jul-15 01:30N 59°20' E 018°05'0 0.0
2017-Jul-15 01:00N 59°20' E 018°05'0 0.0
2017-Jul-15 00:30N 59°20' E 018°05'0 0.0
2017-Jul-15 00:00N 59°20' E 018°05'0 0.0
2017-Jul-14 23:30N 59°20' E 018°05'0 0.0
2017-Jul-14 23:00N 59°20' E 018°05'0 0.0
2017-Jul-14 22:30N 59°20' E 018°05'0 0.0
2017-Jul-14 22:00N 59°20' E 018°05'0 0.0
2017-Jul-14 21:30N 59°20' E 018°05'0 0.0
2017-Jul-14 21:00N 59°20' E 018°05'0 0.0
2017-Jul-14 20:30N 59°20' E 018°05'0 0.0
2017-Jul-14 19:54N 59°20' E 018°05'0 0.0
2017-Jul-14 19:30N 59°20' E 018°05'0 0.0
2017-Jul-14 19:00N 59°20' E 018°05'0 0.0
2017-Jul-14 18:30N 59°20' E 018°05'0 0.0
2017-Jul-14 18:00N 59°20' E 018°05'0 0.0
2017-Jul-14 17:30N 59°20' E 018°05'3 4.6
2017-Jul-14 16:53N 59°19' E 018°10'714.1
2017-Jul-14 16:23N 59°24' E 018°21'3 8.3
2017-Jul-14 15:58N 59°26' E 018°26'4 9.4
2017-Jul-14 15:30N 59°26' E 018°35'3 5.0
2017-Jul-14 15:00N 59°28' E 018°38'4 8.9
2017-Jul-14 14:31N 59°29' E 018°46'2 3.1
2017-Jul-14 13:56N 59°29' E 018°50'3 7.1
2017-Jul-14 13:30N 59°27' E 018°53'2 4.0
2017-Jul-14 13:01N 59°25' E 018°54'3 5.6
2017-Jul-14 12:30N 59°23' E 018°49'2 3.5
2017-Jul-14 12:01N 59°23' E 018°46'2 4.7
2017-Jul-14 11:30N 59°22' E 018°42'16 9.8
2017-Jul-14 09:51N 59°19' E 018°11'3 9.1
2017-Jul-14 09:30N 59°20' E 018°04'0 0.0
2017-Jul-14 08:52N 59°20' E 018°05'0 0.0
2017-Jul-14 08:22N 59°20' E 018°05'0 0.2
2017-Jul-14 08:01N 59°20' E 018°05'19 7.5
2017-Jul-14 05:27N 59°25' E 018°40'3 6.7
2017-Jul-14 04:59N 59°28' E 018°44'4 6.1
2017-Jul-14 04:19N 59°30' E 018°51'0 0.0
2017-Jul-14 03:43N 59°30' E 018°51'0 0.0
2017-Jul-14 03:25N 59°30' E 018°51'0 0.0
2017-Jul-14 02:13N 59°30' E 018°51'0 0.0
2017-Jul-13 18:37N 59°30' E 018°51'111.1
2017-Jul-13 18:30N 59°29' E 018°50'20 6.7
2017-Jul-13 15:34N 59°21' E 018°15'113.5
2017-Jul-13 15:30N 59°20' E 018°13'4 9.0
2017-Jul-13 15:00N 59°20' E 018°04'0 0.1
2017-Jul-13 14:28N 59°20' E 018°05'1 1.2
2017-Jul-13 14:00N 59°19' E 018°05'5 9.8
2017-Jul-13 13:29N 59°21' E 018°14'5 9.3
2017-Jul-13 13:00N 59°24' E 018°21'5 9.5
2017-Jul-13 12:27N 59°25' E 018°31'12 5.1
2017-Jul-13 10:01N 59°27' E 018°55'0 6.1
2017-Jul-13 10:00N 59°27' E 018°55'4 6.7
2017-Jul-13 09:26N 59°29' E 018°50'8 6.7
2017-Jul-13 08:11N 59°26' E 018°35'212.3
2017-Jul-13 08:00N 59°25' E 018°30'5 9.5
2017-Jul-13 07:31N 59°24' E 018°21'4 8.9
2017-Jul-13 07:01N 59°21' E 018°14'510.5
2017-Jul-13 06:31N 59°20' E 018°04'0 0.1
2017-Jul-13 06:00N 59°20' E 018°05'0 0.0
2017-Jul-13 05:30N 59°20' E 018°05'0 0.0
2017-Jul-13 05:00N 59°20' E 018°05'0 0.0
2017-Jul-13 04:30N 59°20' E 018°05'0 0.0
2017-Jul-13 04:00N 59°20' E 018°05'0 0.0
2017-Jul-13 03:30N 59°20' E 018°05'0 0.0
2017-Jul-13 03:00N 59°20' E 018°05'0 0.0
2017-Jul-13 02:30N 59°20' E 018°05'0 0.0
2017-Jul-13 02:00N 59°20' E 018°05'0 0.0
2017-Jul-13 01:30N 59°20' E 018°05'0 0.0
2017-Jul-13 01:00N 59°20' E 018°05'0 0.0
2017-Jul-13 00:30N 59°20' E 018°05'0 0.0
2017-Jul-13 00:00N 59°20' E 018°05'0 0.0
2017-Jul-12 23:30N 59°20' E 018°05'0 0.0
2017-Jul-12 23:00N 59°20' E 018°05'0 0.0
2017-Jul-12 22:27N 59°20' E 018°05'0 0.0
2017-Jul-12 22:00N 59°20' E 018°05'0 0.0
2017-Jul-12 21:27N 59°20' E 018°05'0 0.0
2017-Jul-12 21:00N 59°20' E 018°05'0 0.0
2017-Jul-12 20:30N 59°20' E 018°05'4 7.9
2017-Jul-12 20:00N 59°20' E 018°12'612.7
2017-Jul-12 19:30N 59°24' E 018°21'4 7.7
2017-Jul-12 18:57N 59°25' E 018°30'511.4
2017-Jul-12 18:30N 59°26' E 018°39'3 6.9
2017-Jul-12 18:00N 59°28' E 018°45'2 3.6
2017-Jul-12 17:31N 59°30' E 018°46'4 7.1
2017-Jul-12 17:00N 59°28' E 018°41'3 5.7
2017-Jul-12 16:29N 59°27' E 018°35'4 8.0
2017-Jul-12 16:00N 59°25' E 018°28'4 6.7
2017-Jul-12 15:28N 59°24' E 018°21'5 9.9
2017-Jul-12 15:00N 59°21' E 018°15'5 5.2
2017-Jul-12 13:59N 59°20' E 018°04'0 0.0
2017-Jul-12 13:26N 59°20' E 018°04'0 0.0
2017-Jul-12 12:56N 59°20' E 018°04'0 0.0
2017-Jul-12 12:23N 59°20' E 018°04'0 0.0
2017-Jul-12 11:56N 59°20' E 018°04'0 0.0
2017-Jul-12 11:26N 59°20' E 018°04'0 0.0
2017-Jul-12 10:56N 59°20' E 018°04'0 0.0
2017-Jul-12 10:26N 59°20' E 018°04'0 0.0
2017-Jul-12 09:59N 59°20' E 018°04'0 0.0
2017-Jul-12 09:29N 59°20' E 018°04'0 0.0
2017-Jul-12 08:56N 59°20' E 018°04'0 0.0
2017-Jul-12 08:26N 59°20' E 018°04'4 8.4
2017-Jul-12 08:00N 59°20' E 018°12'5 9.8
2017-Jul-12 07:31N 59°23' E 018°19'3 6.4
2017-Jul-12 07:00N 59°26' E 018°22'4 7.3
2017-Jul-12 06:28N 59°25' E 018°30'714.4
2017-Jul-12 06:00N 59°22' E 018°42'3 6.0
2017-Jul-12 05:30N 59°24' E 018°47'3 5.6
2017-Jul-12 04:59N 59°23' E 018°52'  

Dump ship's entire track history